Home > Products > Valid Products > MTR

000
SAUS46 KMFR 311657
MTRSXT
METAR KSXT 311656Z AUTO 07003KT 10SM BKN110 22/10 A3013 RMK AO2
RAB13E28 SLP146 P0000 T02220100





000
SAUS46 KMFR 311557
MTRSXT
METAR KSXT 311556Z AUTO 00000KT 10SM BKN120 21/10 A3014 RMK AO2
SLP149 T02110100





000
SAUS46 KMFR 311457
MTRSXT
METAR KSXT 311456Z AUTO 06005KT 10SM CLR 21/11 A3013 RMK AO2 SLP144
T02110106 53002





000
SAUS46 KMFR 311357
MTRSXT
METAR KSXT 311356Z AUTO 02010KT 10SM CLR 19/10 A3013 RMK AO2 SLP141
T01890100





000
SAUS46 KMFR 311300
MTRMHS
METAR KMHS 311256Z AUTO 00000KT 10SM CLR 13/07 A3012 RMK AO2 SLP187
T01330072





000
SAUS46 KMFR 311257
MTRSXT
METAR KSXT 311256Z AUTO 02012KT 10SM CLR 18/09 A3012 RMK AO2 SLP139
T01830094





000
SAUS46 KMFR 311157
MTRSXT
METAR KSXT 311156Z AUTO 01012KT 10SM CLR 19/09 A3013 RMK AO2 SLP135
T01890089 10222 20167 56006





000
SAUS46 KMFR 311057
MTRSXT
METAR KSXT 311056Z AUTO 36008KT 10SM CLR 17/10 A3013 RMK AO2 SLP137
T01720100





000
SAUS46 KMFR 310957
MTRSXT
METAR KSXT 310956Z AUTO 35009KT 10SM CLR 18/09 A3014 RMK AO2 SLP140
T01780094





000
SAUS46 KMFR 310858
MTRSXT
METAR KSXT 310856Z AUTO 36006KT 10SM CLR 18/09 A3015 RMK AO2 SLP144
T01830094 58006





000
SAUS46 KMFR 310801
MTRMHS
METAR KMHS 310756Z AUTO 00000KT 10SM CLR 17/07 A3014 RMK AO2 SLP184
T01720067 403610111





000
SAUS46 KMFR 310757
MTRSXT
METAR KSXT 310756Z AUTO 04007KT 10SM CLR 21/10 A3016 RMK AO2 SLP145
T02110100 403060172





000
SAUS46 KMFR 310657
MTRSXT
METAR KSXT 310656Z AUTO 04006KT 10SM CLR 21/09 A3016 RMK AO2 SLP151
T02060089





000
SAUS46 KMFR 310557
MTRSXT
METAR KSXT 310556Z AUTO 09005KT 10SM CLR 22/09 A3017 RMK AO2 SLP155
T02170094 10300 20211 50006





000
SAUS46 KMFR 310457
MTRSXT
METAR KSXT 310456Z AUTO 02009KT 10SM CLR 22/08 A3017 RMK AO2 SLP157
T02220083





000
SAUS46 KMFR 310357
MTRSXT
METAR KSXT 310356Z AUTO 34009KT 10SM CLR 22/09 A3015 RMK AO2 SLP153
T02220089





000
SAUS46 KMFR 310357
MTRSXT
METAR KSXT 310356Z AUTO 34009KT 10SM CLR 22/09 A3015 RMK AO2 SLP153
T02220089





000
SAUS46 KMFR 310257
MTRSXT
METAR KSXT 310256Z AUTO 35008G17KT 10SM CLR 24/11 A3014 RMK AO2
SLP153 T02390106 53004





000
SAUS46 KMFR 310157
MTRSXT
METAR KSXT 310156Z AUTO VRB04KT 10SM CLR 26/11 A3013 RMK AO2 SLP145
T02610111





000
SAUS46 KMFR 310057
MTRSXT
METAR KSXT 310056Z AUTO VRB05KT 10SM CLR 28/11 A3013 RMK AO2 SLP141
T02830111





000
SAUS46 KMFR 302357
MTRSXT
METAR KSXT 302356Z AUTO VRB04KT 10SM CLR 30/11 A3013 RMK AO2 SLP137
T03000111 10306 20228 56011





000
SAUS46 KMFR 302257
MTRSXT
METAR KSXT 302256Z AUTO 10SM CLR 31/11 A3014 RMK AO2 SLP139
T03060106





000
SAUS46 KMFR 302157
MTRSXT
METAR KSXT 302156Z AUTO VRB03KT 10SM CLR 30/11 A3016 RMK AO2 SLP147
T03000111





000
SAUS46 KMFR 302057
MTRSXT
METAR KSXT 302056Z AUTO VRB03KT 10SM CLR 29/12 A3017 RMK AO2 SLP150
T02890117 58003





000
SAUS46 KMFR 301957
MTRSXT
METAR KSXT 301956Z AUTO 04005KT 10SM CLR 27/12 A3018 RMK AO2 SLP160
T02720122





000
SAUS46 KMFR 301857
MTRSXT
METAR KSXT 301856Z AUTO 00000KT 10SM CLR 26/13 A3018 RMK AO2 SLP162
T02610128





000
SAUS46 KMFR 301757
MTRSXT
METAR KSXT 301756Z AUTO 00000KT 10SM CLR 23/13 A3018 RMK AO2 SLP165
T02330133 10244 20178 52003





000
SAUS46 KMFR 301657
MTRSXT
METAR KSXT 301656Z AUTO VRB03KT 10SM CLR 23/12 A3018 RMK AO2 SLP162
T02280122





000
SAUS46 KMFR 301557
MTRSXT
METAR KSXT 301556Z AUTO 04007KT 10SM CLR 22/11 A3017 RMK AO2 SLP161
T02170111





000
SAUS46 KMFR 301457
MTRSXT
METAR KSXT 301456Z AUTO 02008KT 10SM CLR 18/11 A3017 RMK AO2 SLP161
T01830111 52003





000
SAUS46 KMFR 301400
MTRMHS
METAR KMHS 301356Z AUTO 04003KT 10SM CLR 13/05 A3014 RMK AO2 SLP198
T01330050





000
SAUS46 KMFR 301357
MTRSXT
METAR KSXT 301356Z AUTO 02007KT 10SM CLR 18/11 A3016 RMK AO2 SLP156
T01830111





000
SAUS46 KMFR 301257
MTRSXT
METAR KSXT 301256Z AUTO 02009KT 10SM CLR 18/11 A3016 RMK AO2 SLP152
T01830106





000
SAUS46 KMFR 301157
MTRSXT
METAR KSXT 301156Z AUTO 01009KT 10SM CLR 19/11 A3016 RMK AO2 SLP146
T01890106 10194 20172 56005





000
SAUS46 KMFR 301057
MTRSXT
METAR KSXT 301056Z AUTO 36011KT 10SM CLR 18/11 A3016 RMK AO2 SLP147
T01830106





000
SAUS46 KMFR 300957
MTRSXT
METAR KSXT 300956Z AUTO 36009KT 10SM CLR 18/12 A3017 RMK AO2 SLP150
T01780117





000
SAUS46 KMFR 300858
MTRSXT
METAR KSXT 300856Z AUTO 02007KT 10SM CLR 19/11 A3017 RMK AO2 SLP152
T01940111 58003





000
SAUS46 KMFR 300757
MTRSXT
METAR KSXT 300756Z AUTO 34008KT 10SM CLR 18/12 A3018 RMK AO2 SLP161
T01780122 403110172





000
SAUS46 KMFR 300657
MTRSXT
METAR KSXT 300656Z AUTO 34006KT 10SM CLR 18/12 A3019 RMK AO2 SLP166
T01830122





000
SAUS46 KMFR 300600
MTRMHS
METAR KMHS 300556Z AUTO 00000KT 10SM CLR 19/04 A3016 RMK AO2 SLP191
T01940044 10333 20178 53013





000
SAUS46 KMFR 300557
MTRSXT
METAR KSXT 300556Z AUTO 35009KT 10SM CLR 19/13 A3019 RMK AO2 SLP164
T01890128 10294 20189 50007





000
SAUS46 KMFR 300457
MTRSXT
METAR KSXT 300456Z AUTO 35009KT 10SM CLR 20/13 A3019 RMK AO2 SLP166
T02000128





000
SAUS46 KMFR 300357
MTRSXT
METAR KSXT 300356Z AUTO 35010KT 10SM CLR 21/13 A3018 RMK AO2 SLP160
T02110128





000
SAUS46 KMFR 300257
MTRSXT
METAR KSXT 300256Z AUTO 35007G20KT 310V020 10SM CLR 24/11 A3016 RMK
AO2 SLP152 T02390106 53001





000
SAUS46 KMFR 300157
MTRSXT
METAR KSXT 300156Z AUTO 34008KT 10SM CLR 26/10 A3016 RMK AO2 SLP150
T02610100





000
SAUS46 KMFR 300057
MTRSXT
METAR KSXT 300056Z AUTO VRB04KT 10SM CLR 28/11 A3015 RMK AO2 SLP146
T02780111





000
SAUS46 KMFR 300000
MTRMHS
METAR KMHS 292356Z AUTO VRB03KT 10SM CLR 34/07 A3009 RMK AO2 SLP170
T03390072 10372 20300 55009





000
SAUS46 KMFR 292357
MTRSXT
METAR KSXT 292356Z AUTO VRB06KT 10SM CLR 29/11 A3016 RMK AO2 SLP145
T02940111 10311 20239 56010





000
SAUS46 KMFR 292257
MTRSXT
METAR KSXT 292256Z AUTO VRB05KT 10SM CLR 31/11 A3017 RMK AO2 SLP147
T03060106





000
SAUS46 KMFR 292157
MTRSXT
METAR KSXT 292156Z AUTO 00000KT 10SM CLR 31/12 A3018 RMK AO2 SLP152
T03060122





000
SAUS46 KMFR 292057
MTRSXT
METAR KSXT 292056Z AUTO VRB05KT 10SM CLR 29/13 A3019 RMK AO2 SLP159
T02940128 58004





000
SAUS46 KMFR 291957
MTRSXT
METAR KSXT 291956Z AUTO 32004KT 10SM CLR 27/13 A3020 RMK AO2 SLP167
T02670133





000
SAUS46 KMFR 291857
MTRSXT
METAR KSXT 291856Z AUTO 00000KT 10SM CLR 25/13 A3021 RMK AO2 SLP170
T02500133





000
SAUS46 KMFR 291757
MTRSXT
METAR KSXT 291756Z AUTO VRB03KT 10SM CLR 25/14 A3021 RMK AO2 SLP168
T02500139 10256 20172 52003





000
SAUS46 KMFR 291657
MTRSXT
METAR KSXT 291656Z AUTO VRB03KT 10SM CLR 24/12 A3020 RMK AO2 SLP167
T02440122





000
SAUS46 KMFR 291600
MTRMHS
METAR KMHS 291556Z AUTO 00000KT 10SM CLR 24/08 A3020 RMK AO2 SLP204
T02390078





000
SAUS46 KMFR 291557
MTRSXT
METAR KSXT 291556Z AUTO 03003KT 10SM FEW110 23/12 A3020 RMK AO2
SLP166 T02280122





000
SAUS46 KMFR 291458
MTRSXT
METAR KSXT 291456Z AUTO 00000KT 10SM FEW110 22/12 A3020 RMK AO2
SLP162 T02220117 53005





000
SAUS46 KMFR 291357
MTRSXT
METAR KSXT 291356Z AUTO 02005KT 10SM FEW120 21/11 A3019 RMK AO2
SLP158 T02060106





000
SAUS46 KMFR 291257
MTRSXT
METAR KSXT 291256Z AUTO 03006KT 10SM CLR 20/11 A3019 RMK AO2 SLP155
T02000106





000
SAUS46 KMFR 291157
MTRSXT
METAR KSXT 291156Z AUTO 02007KT 10SM CLR 20/11 A3018 RMK AO2 SLP155
T02000106 10211 20178 55000





000
SAUS46 KMFR 291100
MTRMHS
METAR KMHS 291056Z AUTO 00000KT 10SM CLR 15/06 A3017 RMK AO2 SLP200
T01500056





000
SAUS46 KMFR 291057
MTRSXT
METAR KSXT 291056Z AUTO 01009KT 10SM CLR 19/11 A3018 RMK AO2 SLP150
T01890111





000
SAUS46 KMFR 290957
MTRSXT
METAR KSXT 290956Z AUTO 35009KT 10SM CLR 19/11 A3018 RMK AO2 SLP153
T01890111





000
SAUS46 KMFR 290857
MTRSXT
METAR KSXT 290856Z AUTO 35007KT 10SM CLR 19/12 A3018 RMK AO2 SLP155
T01890117 58001





000
SAUS46 KMFR 290757
MTRSXT
METAR KSXT 290756Z AUTO 35009KT 10SM CLR 19/12 A3019 RMK AO2 SLP157
T01940122 403220172





000
SAUS46 KMFR 290657
MTRSXT
METAR KSXT 290656Z AUTO 35010KT 10SM CLR 21/12 A3019 RMK AO2 SLP158
T02060122





000
SAUS46 KMFR 290557
MTRSXT
METAR KSXT 290556Z AUTO 35010KT 10SM CLR 21/13 A3019 RMK AO2 SLP159
T02110128 10300 20211 51010





000
SAUS46 KMFR 290457
MTRSXT
METAR KSXT 290456Z AUTO 35011KT 10SM CLR 22/13 A3018 RMK AO2 SLP159
T02170128





000
SAUS46 KMFR 290357
MTRSXT
METAR KSXT 290356Z AUTO 35011G16KT 10SM CLR 23/11 A3017 RMK AO2
SLP153 T02330106





000
SAUS46 KMFR 290257
MTRSXT
METAR KSXT 290256Z AUTO 34004KT 10SM CLR 25/11 A3016 RMK AO2 SLP147
T02500111 53001





000
SAUS46 KMFR 290157
MTRSXT
METAR KSXT 290156Z AUTO 10SM CLR 28/11 A3015 RMK AO2 SLP141
T02780111





000
SAUS46 KMFR 290057
MTRSXT
METAR KSXT 290056Z AUTO VRB05KT 10SM CLR 30/12 A3014 RMK AO2 SLP138
T03000122





000
SAUS46 KMFR 290000
MTRMHS
METAR KMHS 282356Z AUTO VRB04KT 10SM CLR 34/07 A3008 RMK AO2 SLP166
T03440072 10367 20300 58012





000
SAUS46 KMFR 282357
MTRSXT
METAR KSXT 282356Z AUTO VRB03KT 10SM CLR 28/11 A3015 RMK AO2 SLP142
T02830106 10322 20244 58012





000
SAUS46 KMFR 282257
MTRSXT
METAR KSXT 282256Z AUTO VRB06KT 10SM CLR 32/09 A3017 RMK AO2 SLP142
T03220089





000
SAUS46 KMFR 282157
MTRSXT
METAR KSXT 282156Z AUTO VRB04KT 10SM CLR 31/09 A3018 RMK AO2 SLP149
T03110089





000
SAUS46 KMFR 282100 COR
MTRMHS
METAR KMHS 282056Z AUTO 00000KT 10SM CLR 36/03 A3012 RMK AO2 SLP177
T03560033 58008





000
SAUS46 KMFR 282057
MTRSXT
METAR KSXT 282056Z AUTO 35005KT 10SM CLR 29/11 A3019 RMK AO2 SLP158
T02940111 50001





000
SAUS46 KMFR 281957
MTRSXT
METAR KSXT 281956Z AUTO 00000KT 10SM CLR 29/14 A3019 RMK AO2 SLP163
T02890139





000
SAUS46 KMFR 281900 COR
MTRMHS
METAR KMHS 281856Z AUTO 00000KT 10SM CLR 34/07 A3014 RMK AO2 SLP183
T03440072





000
SAUS46 KMFR 281857
MTRSXT
METAR KSXT 281856Z AUTO 00000KT 10SM CLR 27/13 A3020 RMK AO2 SLP166
T02670133





000
SAUS46 KMFR 281757
MTRSXT
METAR KSXT 281756Z AUTO VRB03KT 10SM CLR 26/13 A3019 RMK AO2 SLP163
T02610128 10261 20206 51002





    US Dept of Commerce
    National Oceanic and Atmospheric Administration
    National Weather Service
    1325 East West Highway
    Silver Spring, MD 20910
    Page Author: NWS Internet Services Team
Disclaimer
Information Quality
Credits
Glossary
Privacy Policy
Freedom of Information Act (FOIA)
About Us
Career Opportunities